首页
METAR-TAF:

METAR-TAF

机场 :

伊魁特機場

伊魁特, 努那武特, 加拿大

纬度: 63-45N, 经度: 068-33W, 海拔: 34米

当前天气观测

该预报发布于1小时和4分钟前的22:00 UTC
风速2节,风向北转西北
温度 -32°C
湿度 67%
气压 1012 hPa
能見度: 24.1公里
少量云层高于14000英尺
散云层高于25000英尺
冰针

METAR: CYFB 232200Z 33002KT 15SM IC FEW140 SCT250 M32/M36 A2988 RMK AC1CI2 SLP127

时间: 18:04 (23:04 UTC)

预报

该预报发布于5小时和26分钟前的17:38 UTC
预报有效从23日的 18点(UTC)到 24日的 18点(UTC)
风速5节,风向西北
能見度: 10公里
少量云层高于12000英尺
少量云层高于24000英尺
冰针
从 24日的 0300点(UTC)
风速3节,风向多变
能見度: 10公里
少量云层高于4000英尺
散云层高于10000英尺
冰针
从 24日的 0600点(UTC)
风速10节,风向东转东南
能見度: 10公里
多云层高于4000英尺
多云层高于8000英尺
冰针

TAF: CYFB 231738Z 2318/2418 32005KT P6SM IC FEW120 FEW240 FM240300 VRB03KT P6SM IC FEW040 SCT100 FM240600 12010KT P6SM IC BKN040 BKN080 RMK NXT FCST BY 240000Z

超过4000个机场的气象观测和天气预报(METAR&TAF报告)。

可查询的气象台以黄色和红色小点在地图上表示。

将鼠标移到小点上方,可查看气象台名称。

然后点击查看天气观测和预报。

如需切换地图:点击带黑十字的绿色按钮放大地图;点击带横线的绿色按钮缩小地图;或者点击绿色箭头查看邻近地区的地图。


METAR-TAF: